Terminal Aerodrome Forecast
Issued by NWS Twin Cities, MN

Home | Current Version | Previous Version | Graphics & Text | Print | Product List | Glossary On
Versions: 1 2 3 4 5 6 7 8 9 10 11 12 13 14 15 16 17 18 19
000
FTUS43 KMPX 022006 AAA
TAFSTC
TAF AMD
KSTC 022006Z 0220/0318 32015G23KT P6SM SCT045
     FM030100 31010KT P6SM FEW050
     FM030400 30003KT P6SM SKC
     FM031500 31012G18KT P6SM SKC=

USA.gov is the U.S. government's official web portal to all federal, state and local government web resources and services.